sensor_id;sensor_type;location;lat;lon;timestamp;temperature;humidity
29501;DHT22;16450;50.288;10.966;2022-12-31T00:01:46;9.50;99.90
29501;DHT22;16450;50.288;10.966;2022-12-31T00:04:46;9.60;99.90
29501;DHT22;16450;50.288;10.966;2022-12-31T00:07:47;9.60;99.90
29501;DHT22;16450;50.288;10.966;2022-12-31T00:10:48;9.60;99.90
29501;DHT22;16450;50.288;10.966;2022-12-31T00:13:49;9.70;99.90
29501;DHT22;16450;50.288;10.966;2022-12-31T00:16:50;9.70;99.90
29501;DHT22;16450;50.288;10.966;2022-12-31T00:19:51;9.70;99.90
29501;DHT22;16450;50.288;10.966;2022-12-31T00:22:51;9.70;99.90
29501;DHT22;16450;50.288;10.966;2022-12-31T00:25:52;9.70;99.90
29501;DHT22;16450;50.288;10.966;2022-12-31T00:28:54;9.70;99.90
29501;DHT22;16450;50.288;10.966;2022-12-31T00:31:55;9.80;99.90
29501;DHT22;16450;50.288;10.966;2022-12-31T00:34:55;9.70;99.90
29501;DHT22;16450;50.288;10.966;2022-12-31T00:37:56;9.70;99.90
29501;DHT22;16450;50.288;10.966;2022-12-31T00:40:56;9.70;99.90
29501;DHT22;16450;50.288;10.966;2022-12-31T00:43:57;9.80;99.90
29501;DHT22;16450;50.288;10.966;2022-12-31T00:46:58;9.80;99.90
29501;DHT22;16450;50.288;10.966;2022-12-31T00:49:59;9.80;99.90
29501;DHT22;16450;50.288;10.966;2022-12-31T00:52:59;9.90;99.90
29501;DHT22;16450;50.288;10.966;2022-12-31T00:56:06;9.90;99.90
29501;DHT22;16450;50.288;10.966;2022-12-31T00:59:07;9.90;99.90
29501;DHT22;16450;50.288;10.966;2022-12-31T01:02:08;9.90;99.90
29501;DHT22;16450;50.288;10.966;2022-12-31T01:05:08;10.00;99.90
29501;DHT22;16450;50.288;10.966;2022-12-31T01:08:09;10.00;99.90
29501;DHT22;16450;50.288;10.966;2022-12-31T01:11:11;10.10;99.90
29501;DHT22;16450;50.288;10.966;2022-12-31T01:14:23;10.10;99.90
29501;DHT22;16450;50.288;10.966;2022-12-31T01:17:26;10.10;99.90
29501;DHT22;16450;50.288;10.966;2022-12-31T01:20:27;10.20;99.90
29501;DHT22;16450;50.288;10.966;2022-12-31T01:23:28;10.20;99.90
29501;DHT22;16450;50.288;10.966;2022-12-31T01:26:29;10.20;99.90
29501;DHT22;16450;50.288;10.966;2022-12-31T01:29:30;10.30;99.90
29501;DHT22;16450;50.288;10.966;2022-12-31T01:32:30;10.40;99.90
29501;DHT22;16450;50.288;10.966;2022-12-31T01:35:34;10.40;99.90
29501;DHT22;16450;50.288;10.966;2022-12-31T01:38:34;10.40;99.90
29501;DHT22;16450;50.288;10.966;2022-12-31T01:41:38;10.40;99.90
29501;DHT22;16450;50.288;10.966;2022-12-31T01:47:44;10.50;99.90
29501;DHT22;16450;50.288;10.966;2022-12-31T01:50:45;10.50;99.90
29501;DHT22;16450;50.288;10.966;2022-12-31T01:53:47;10.50;99.90
29501;DHT22;16450;50.288;10.966;2022-12-31T01:56:48;10.60;99.90
29501;DHT22;16450;50.288;10.966;2022-12-31T01:59:52;10.60;99.90
29501;DHT22;16450;50.288;10.966;2022-12-31T02:02:53;10.70;99.90
29501;DHT22;16450;50.288;10.966;2022-12-31T02:09:02;10.70;99.90
29501;DHT22;16450;50.288;10.966;2022-12-31T02:12:04;10.70;99.90
29501;DHT22;16450;50.288;10.966;2022-12-31T02:15:05;10.80;99.90
29501;DHT22;16450;50.288;10.966;2022-12-31T02:31:40;10.90;99.90
29501;DHT22;16450;50.288;10.966;2022-12-31T02:35:00;10.90;99.90
29501;DHT22;16450;50.288;10.966;2022-12-31T02:38:10;11.00;99.90
29501;DHT22;16450;50.288;10.966;2022-12-31T02:41:13;11.00;99.90
29501;DHT22;16450;50.288;10.966;2022-12-31T02:44:36;11.00;99.90
29501;DHT22;16450;50.288;10.966;2022-12-31T02:47:47;11.00;99.90
29501;DHT22;16450;50.288;10.966;2022-12-31T02:50:59;11.00;99.90
29501;DHT22;16450;50.288;10.966;2022-12-31T02:57:43;11.10;99.90
29501;DHT22;16450;50.288;10.966;2022-12-31T03:00:53;11.00;99.90
29501;DHT22;16450;50.288;10.966;2022-12-31T03:04:14;11.10;99.90
29501;DHT22;16450;50.288;10.966;2022-12-31T03:07:33;11.10;99.90
29501;DHT22;16450;50.288;10.966;2022-12-31T03:10:34;11.10;99.90
29501;DHT22;16450;50.288;10.966;2022-12-31T03:13:35;11.10;99.90
29501;DHT22;16450;50.288;10.966;2022-12-31T03:16:36;11.10;99.90
29501;DHT22;16450;50.288;10.966;2022-12-31T03:19:36;11.10;99.90
29501;DHT22;16450;50.288;10.966;2022-12-31T03:22:55;11.10;99.90
29501;DHT22;16450;50.288;10.966;2022-12-31T03:25:57;11.20;99.90
29501;DHT22;16450;50.288;10.966;2022-12-31T03:28:58;11.20;99.90
29501;DHT22;16450;50.288;10.966;2022-12-31T03:31:59;11.20;99.90
29501;DHT22;16450;50.288;10.966;2022-12-31T03:34:59;11.20;99.90
29501;DHT22;16450;50.288;10.966;2022-12-31T03:38:00;11.20;99.90
29501;DHT22;16450;50.288;10.966;2022-12-31T03:41:01;11.20;99.90
29501;DHT22;16450;50.288;10.966;2022-12-31T03:44:01;11.20;99.90
29501;DHT22;16450;50.288;10.966;2022-12-31T03:47:02;11.20;99.90
29501;DHT22;16450;50.288;10.966;2022-12-31T03:50:05;11.30;99.90
29501;DHT22;16450;50.288;10.966;2022-12-31T03:53:06;11.20;99.90
29501;DHT22;16450;50.288;10.966;2022-12-31T03:56:06;11.30;99.90
29501;DHT22;16450;50.288;10.966;2022-12-31T03:59:07;11.30;99.90
29501;DHT22;16450;50.288;10.966;2022-12-31T04:02:07;11.30;99.90
29501;DHT22;16450;50.288;10.966;2022-12-31T04:05:09;11.30;99.90
29501;DHT22;16450;50.288;10.966;2022-12-31T04:08:09;11.30;99.90
29501;DHT22;16450;50.288;10.966;2022-12-31T04:11:10;11.30;99.90
29501;DHT22;16450;50.288;10.966;2022-12-31T04:14:11;11.30;99.90
29501;DHT22;16450;50.288;10.966;2022-12-31T04:17:11;11.30;99.90
29501;DHT22;16450;50.288;10.966;2022-12-31T04:20:12;11.30;99.90
29501;DHT22;16450;50.288;10.966;2022-12-31T04:23:13;11.30;99.90
29501;DHT22;16450;50.288;10.966;2022-12-31T04:26:13;11.40;99.90
29501;DHT22;16450;50.288;10.966;2022-12-31T04:29:14;11.40;99.90
29501;DHT22;16450;50.288;10.966;2022-12-31T04:32:14;11.40;99.90
29501;DHT22;16450;50.288;10.966;2022-12-31T04:35:15;11.40;99.90
29501;DHT22;16450;50.288;10.966;2022-12-31T04:38:16;11.40;99.90
29501;DHT22;16450;50.288;10.966;2022-12-31T04:41:16;11.40;99.90
29501;DHT22;16450;50.288;10.966;2022-12-31T04:44:17;11.40;99.90
29501;DHT22;16450;50.288;10.966;2022-12-31T04:47:18;11.50;99.90
29501;DHT22;16450;50.288;10.966;2022-12-31T04:50:18;11.50;99.90
29501;DHT22;16450;50.288;10.966;2022-12-31T04:53:19;11.50;99.90
29501;DHT22;16450;50.288;10.966;2022-12-31T04:56:20;11.50;99.90
29501;DHT22;16450;50.288;10.966;2022-12-31T04:59:20;11.60;99.90
29501;DHT22;16450;50.288;10.966;2022-12-31T05:02:21;11.60;99.90
29501;DHT22;16450;50.288;10.966;2022-12-31T05:05:21;11.60;99.90
29501;DHT22;16450;50.288;10.966;2022-12-31T05:08:22;11.60;99.90
29501;DHT22;16450;50.288;10.966;2022-12-31T05:11:22;11.60;99.90
29501;DHT22;16450;50.288;10.966;2022-12-31T05:14:23;11.70;99.90
29501;DHT22;16450;50.288;10.966;2022-12-31T05:17:24;11.60;99.90
29501;DHT22;16450;50.288;10.966;2022-12-31T05:20:25;11.70;99.90
29501;DHT22;16450;50.288;10.966;2022-12-31T05:23:25;11.70;99.90
29501;DHT22;16450;50.288;10.966;2022-12-31T05:26:26;11.70;99.90
29501;DHT22;16450;50.288;10.966;2022-12-31T05:29:27;11.70;99.90
29501;DHT22;16450;50.288;10.966;2022-12-31T05:32:27;11.70;99.90
29501;DHT22;16450;50.288;10.966;2022-12-31T05:35:28;11.70;99.90
29501;DHT22;16450;50.288;10.966;2022-12-31T05:38:29;11.80;99.90
29501;DHT22;16450;50.288;10.966;2022-12-31T05:41:29;11.80;99.90
29501;DHT22;16450;50.288;10.966;2022-12-31T05:44:30;11.80;99.90
29501;DHT22;16450;50.288;10.966;2022-12-31T05:47:31;11.80;99.90
29501;DHT22;16450;50.288;10.966;2022-12-31T05:50:31;11.80;99.90
29501;DHT22;16450;50.288;10.966;2022-12-31T05:53:32;11.80;99.90
29501;DHT22;16450;50.288;10.966;2022-12-31T05:56:33;11.80;99.90
29501;DHT22;16450;50.288;10.966;2022-12-31T05:59:34;11.90;99.90
29501;DHT22;16450;50.288;10.966;2022-12-31T06:02:35;11.90;99.90
29501;DHT22;16450;50.288;10.966;2022-12-31T06:05:39;11.90;99.90
29501;DHT22;16450;50.288;10.966;2022-12-31T06:08:40;11.90;99.90
29501;DHT22;16450;50.288;10.966;2022-12-31T06:11:41;11.90;99.90
29501;DHT22;16450;50.288;10.966;2022-12-31T06:14:42;11.90;99.90
29501;DHT22;16450;50.288;10.966;2022-12-31T06:17:43;12.00;99.90
29501;DHT22;16450;50.288;10.966;2022-12-31T06:20:44;12.00;99.90
29501;DHT22;16450;50.288;10.966;2022-12-31T06:23:45;12.10;99.90
29501;DHT22;16450;50.288;10.966;2022-12-31T06:26:46;12.00;99.90
29501;DHT22;16450;50.288;10.966;2022-12-31T06:29:47;12.00;99.90
29501;DHT22;16450;50.288;10.966;2022-12-31T06:32:47;12.00;99.90
29501;DHT22;16450;50.288;10.966;2022-12-31T06:35:48;12.10;99.90
29501;DHT22;16450;50.288;10.966;2022-12-31T06:38:54;12.10;99.90
29501;DHT22;16450;50.288;10.966;2022-12-31T06:41:54;12.10;99.90
29501;DHT22;16450;50.288;10.966;2022-12-31T06:44:56;12.10;99.90
29501;DHT22;16450;50.288;10.966;2022-12-31T06:47:57;12.10;99.90
29501;DHT22;16450;50.288;10.966;2022-12-31T06:51:09;12.20;99.90
29501;DHT22;16450;50.288;10.966;2022-12-31T06:54:11;12.20;99.90
29501;DHT22;16450;50.288;10.966;2022-12-31T06:57:12;12.20;99.90
29501;DHT22;16450;50.288;10.966;2022-12-31T07:00:13;12.30;99.90
29501;DHT22;16450;50.288;10.966;2022-12-31T07:03:35;12.30;99.90
29501;DHT22;16450;50.288;10.966;2022-12-31T07:06:51;12.30;99.90
29501;DHT22;16450;50.288;10.966;2022-12-31T07:13:52;12.30;99.90
29501;DHT22;16450;50.288;10.966;2022-12-31T07:20:11;12.40;99.90
29501;DHT22;16450;50.288;10.966;2022-12-31T07:23:12;12.40;99.90
29501;DHT22;16450;50.288;10.966;2022-12-31T07:36:19;12.60;99.90
29501;DHT22;16450;50.288;10.966;2022-12-31T07:39:36;12.50;99.90
29501;DHT22;16450;50.288;10.966;2022-12-31T07:43:00;12.60;99.90
29501;DHT22;16450;50.288;10.966;2022-12-31T07:49:03;12.60;99.90
29501;DHT22;16450;50.288;10.966;2022-12-31T07:52:04;12.60;99.90
29501;DHT22;16450;50.288;10.966;2022-12-31T07:55:05;12.60;99.90
29501;DHT22;16450;50.288;10.966;2022-12-31T08:01:57;12.70;99.90
29501;DHT22;16450;50.288;10.966;2022-12-31T08:14:29;12.70;99.90
29501;DHT22;16450;50.288;10.966;2022-12-31T08:17:30;12.80;99.90
29501;DHT22;16450;50.288;10.966;2022-12-31T08:20:32;12.80;99.90
29501;DHT22;16450;50.288;10.966;2022-12-31T08:33:51;12.90;99.90
29501;DHT22;16450;50.288;10.966;2022-12-31T08:37:46;12.90;99.90
29501;DHT22;16450;50.288;10.966;2022-12-31T08:44:45;13.00;99.90
29501;DHT22;16450;50.288;10.966;2022-12-31T08:47:49;13.00;99.90
29501;DHT22;16450;50.288;10.966;2022-12-31T08:50:53;13.10;99.90
29501;DHT22;16450;50.288;10.966;2022-12-31T08:53:54;13.10;99.90
29501;DHT22;16450;50.288;10.966;2022-12-31T09:00:34;13.30;99.90
29501;DHT22;16450;50.288;10.966;2022-12-31T09:07:53;13.40;99.90
29501;DHT22;16450;50.288;10.966;2022-12-31T09:14:25;13.50;99.90
29501;DHT22;16450;50.288;10.966;2022-12-31T09:17:47;13.50;99.90
29501;DHT22;16450;50.288;10.966;2022-12-31T09:20:49;13.50;99.90
29501;DHT22;16450;50.288;10.966;2022-12-31T09:23:50;13.50;99.90
29501;DHT22;16450;50.288;10.966;2022-12-31T09:30:22;13.60;99.90
29501;DHT22;16450;50.288;10.966;2022-12-31T09:33:35;13.60;99.90
29501;DHT22;16450;50.288;10.966;2022-12-31T09:36:50;13.70;99.90
29501;DHT22;16450;50.288;10.966;2022-12-31T09:39:56;13.70;99.90
29501;DHT22;16450;50.288;10.966;2022-12-31T10:00:21;14.00;99.90
29501;DHT22;16450;50.288;10.966;2022-12-31T10:10:24;14.30;99.90
29501;DHT22;16450;50.288;10.966;2022-12-31T10:13:55;14.40;99.90
29501;DHT22;16450;50.288;10.966;2022-12-31T10:17:53;14.50;99.90
29501;DHT22;16450;50.288;10.966;2022-12-31T10:20:38;14.70;99.90
29501;DHT22;16450;50.288;10.966;2022-12-31T10:27:07;14.90;99.90
29501;DHT22;16450;50.288;10.966;2022-12-31T10:30:17;15.00;99.90
29501;DHT22;16450;50.288;10.966;2022-12-31T10:33:36;15.10;99.90
29501;DHT22;16450;50.288;10.966;2022-12-31T10:36:59;15.20;99.90
29501;DHT22;16450;50.288;10.966;2022-12-31T10:56:49;15.40;99.90
29501;DHT22;16450;50.288;10.966;2022-12-31T11:17:33;15.30;99.90
29501;DHT22;16450;50.288;10.966;2022-12-31T11:37:17;15.40;99.90
29501;DHT22;16450;50.288;10.966;2022-12-31T11:40:45;15.40;99.90
29501;DHT22;16450;50.288;10.966;2022-12-31T11:44:11;15.40;99.90
29501;DHT22;16450;50.288;10.966;2022-12-31T11:54:35;15.50;99.90
29501;DHT22;16450;50.288;10.966;2022-12-31T11:57:34;15.50;99.90
29501;DHT22;16450;50.288;10.966;2022-12-31T12:00:36;15.50;99.90
29501;DHT22;16450;50.288;10.966;2022-12-31T12:03:38;15.50;99.90
29501;DHT22;16450;50.288;10.966;2022-12-31T12:06:43;15.60;99.90
29501;DHT22;16450;50.288;10.966;2022-12-31T12:09:45;15.60;99.90
29501;DHT22;16450;50.288;10.966;2022-12-31T12:12:46;15.60;99.90
29501;DHT22;16450;50.288;10.966;2022-12-31T12:15:52;15.70;99.90
29501;DHT22;16450;50.288;10.966;2022-12-31T12:19:06;15.60;99.90
29501;DHT22;16450;50.288;10.966;2022-12-31T12:22:24;15.60;99.90
29501;DHT22;16450;50.288;10.966;2022-12-31T12:25:39;15.70;99.90
29501;DHT22;16450;50.288;10.966;2022-12-31T12:28:44;15.70;99.90
29501;DHT22;16450;50.288;10.966;2022-12-31T12:34:54;15.80;99.90
29501;DHT22;16450;50.288;10.966;2022-12-31T12:38:22;15.80;99.90
29501;DHT22;16450;50.288;10.966;2022-12-31T12:41:23;15.80;99.90
29501;DHT22;16450;50.288;10.966;2022-12-31T12:44:26;15.90;99.90
29501;DHT22;16450;50.288;10.966;2022-12-31T12:47:27;15.90;99.90
29501;DHT22;16450;50.288;10.966;2022-12-31T12:50:37;16.00;99.90
29501;DHT22;16450;50.288;10.966;2022-12-31T12:54:14;16.00;99.90
29501;DHT22;16450;50.288;10.966;2022-12-31T13:10:14;16.30;99.90
29501;DHT22;16450;50.288;10.966;2022-12-31T13:26:40;16.40;99.90
29501;DHT22;16450;50.288;10.966;2022-12-31T13:29:44;16.40;99.90
29501;DHT22;16450;50.288;10.966;2022-12-31T13:32:59;16.40;99.90
29501;DHT22;16450;50.288;10.966;2022-12-31T13:39:06;16.40;99.90
29501;DHT22;16450;50.288;10.966;2022-12-31T13:42:29;16.50;99.90
29501;DHT22;16450;50.288;10.966;2022-12-31T13:45:37;16.40;99.90
29501;DHT22;16450;50.288;10.966;2022-12-31T13:48:57;16.40;99.90
29501;DHT22;16450;50.288;10.966;2022-12-31T13:52:02;16.50;99.90
29501;DHT22;16450;50.288;10.966;2022-12-31T13:55:18;16.40;99.90
29501;DHT22;16450;50.288;10.966;2022-12-31T13:58:37;16.40;99.90
29501;DHT22;16450;50.288;10.966;2022-12-31T14:08:45;16.20;99.90
29501;DHT22;16450;50.288;10.966;2022-12-31T14:12:02;16.20;99.90
29501;DHT22;16450;50.288;10.966;2022-12-31T14:21:27;16.00;99.90
29501;DHT22;16450;50.288;10.966;2022-12-31T14:24:36;16.00;99.90
29501;DHT22;16450;50.288;10.966;2022-12-31T14:27:40;15.90;99.90
29501;DHT22;16450;50.288;10.966;2022-12-31T14:30:44;15.80;99.90
29501;DHT22;16450;50.288;10.966;2022-12-31T14:34:11;15.80;99.90
29501;DHT22;16450;50.288;10.966;2022-12-31T14:50:31;15.50;99.90
29501;DHT22;16450;50.288;10.966;2022-12-31T14:53:34;15.40;99.90
29501;DHT22;16450;50.288;10.966;2022-12-31T14:56:43;15.40;99.90
29501;DHT22;16450;50.288;10.966;2022-12-31T14:59:56;15.40;99.90
29501;DHT22;16450;50.288;10.966;2022-12-31T15:03:01;15.30;99.90
29501;DHT22;16450;50.288;10.966;2022-12-31T15:16:32;15.20;99.90
29501;DHT22;16450;50.288;10.966;2022-12-31T15:22:50;15.00;99.90
29501;DHT22;16450;50.288;10.966;2022-12-31T15:26:00;15.00;99.90
29501;DHT22;16450;50.288;10.966;2022-12-31T15:29:04;15.00;99.90
29501;DHT22;16450;50.288;10.966;2022-12-31T15:32:11;15.00;99.90
29501;DHT22;16450;50.288;10.966;2022-12-31T15:38:36;14.90;99.90
29501;DHT22;16450;50.288;10.966;2022-12-31T15:41:42;14.90;99.90
29501;DHT22;16450;50.288;10.966;2022-12-31T15:44:55;14.80;99.90
29501;DHT22;16450;50.288;10.966;2022-12-31T15:47:59;14.80;99.90
29501;DHT22;16450;50.288;10.966;2022-12-31T15:51:01;14.80;99.90
29501;DHT22;16450;50.288;10.966;2022-12-31T15:54:04;14.80;99.90
29501;DHT22;16450;50.288;10.966;2022-12-31T15:57:06;14.70;99.90
29501;DHT22;16450;50.288;10.966;2022-12-31T16:00:20;14.70;99.90
29501;DHT22;16450;50.288;10.966;2022-12-31T16:03:26;14.70;99.90
29501;DHT22;16450;50.288;10.966;2022-12-31T16:06:29;14.60;99.90
29501;DHT22;16450;50.288;10.966;2022-12-31T16:09:33;14.70;99.90
29501;DHT22;16450;50.288;10.966;2022-12-31T16:12:37;14.60;99.90
29501;DHT22;16450;50.288;10.966;2022-12-31T16:15:39;14.60;99.90
29501;DHT22;16450;50.288;10.966;2022-12-31T16:18:42;14.50;99.90
29501;DHT22;16450;50.288;10.966;2022-12-31T16:21:46;14.50;99.90
29501;DHT22;16450;50.288;10.966;2022-12-31T16:24:52;14.50;99.90
29501;DHT22;16450;50.288;10.966;2022-12-31T16:27:54;14.40;99.90
29501;DHT22;16450;50.288;10.966;2022-12-31T16:31:11;14.40;99.90
29501;DHT22;16450;50.288;10.966;2022-12-31T16:34:16;14.40;99.90
29501;DHT22;16450;50.288;10.966;2022-12-31T16:37:20;14.40;99.90
29501;DHT22;16450;50.288;10.966;2022-12-31T16:40:22;14.40;99.90
29501;DHT22;16450;50.288;10.966;2022-12-31T16:43:29;14.30;99.90
29501;DHT22;16450;50.288;10.966;2022-12-31T16:46:30;14.30;99.90
29501;DHT22;16450;50.288;10.966;2022-12-31T16:49:34;14.30;99.90
29501;DHT22;16450;50.288;10.966;2022-12-31T16:52:40;14.20;99.90
29501;DHT22;16450;50.288;10.966;2022-12-31T16:55:42;14.20;99.90
29501;DHT22;16450;50.288;10.966;2022-12-31T16:58:52;14.10;99.90
29501;DHT22;16450;50.288;10.966;2022-12-31T17:01:55;14.10;99.90
29501;DHT22;16450;50.288;10.966;2022-12-31T17:05:00;14.00;99.90
29501;DHT22;16450;50.288;10.966;2022-12-31T17:08:26;14.00;99.90
29501;DHT22;16450;50.288;10.966;2022-12-31T17:11:34;14.00;99.60
29501;DHT22;16450;50.288;10.966;2022-12-31T17:14:48;13.90;99.90
29501;DHT22;16450;50.288;10.966;2022-12-31T17:17:53;13.90;99.90
29501;DHT22;16450;50.288;10.966;2022-12-31T17:20:54;13.90;99.90
29501;DHT22;16450;50.288;10.966;2022-12-31T17:24:05;13.80;99.90
29501;DHT22;16450;50.288;10.966;2022-12-31T17:27:07;13.80;99.90
29501;DHT22;16450;50.288;10.966;2022-12-31T17:36:22;13.70;99.90
29501;DHT22;16450;50.288;10.966;2022-12-31T17:39:24;13.70;99.90
29501;DHT22;16450;50.288;10.966;2022-12-31T17:42:37;13.70;99.90
29501;DHT22;16450;50.288;10.966;2022-12-31T17:45:41;13.60;99.90
29501;DHT22;16450;50.288;10.966;2022-12-31T17:48:43;13.60;99.90
29501;DHT22;16450;50.288;10.966;2022-12-31T17:51:45;13.50;99.90
29501;DHT22;16450;50.288;10.966;2022-12-31T17:54:46;13.40;99.90
29501;DHT22;16450;50.288;10.966;2022-12-31T17:57:54;13.50;99.90
29501;DHT22;16450;50.288;10.966;2022-12-31T18:00:57;13.50;99.90
29501;DHT22;16450;50.288;10.966;2022-12-31T18:03:58;13.60;99.90
29501;DHT22;16450;50.288;10.966;2022-12-31T18:06:58;13.50;99.90
29501;DHT22;16450;50.288;10.966;2022-12-31T18:09:59;13.50;99.90
29501;DHT22;16450;50.288;10.966;2022-12-31T18:13:00;13.40;99.90
29501;DHT22;16450;50.288;10.966;2022-12-31T18:16:01;13.40;99.90
29501;DHT22;16450;50.288;10.966;2022-12-31T18:19:01;13.40;99.90
29501;DHT22;16450;50.288;10.966;2022-12-31T18:22:02;13.40;99.90
29501;DHT22;16450;50.288;10.966;2022-12-31T18:25:03;13.40;99.90
29501;DHT22;16450;50.288;10.966;2022-12-31T18:28:07;13.40;99.90
29501;DHT22;16450;50.288;10.966;2022-12-31T18:31:17;13.40;99.90
29501;DHT22;16450;50.288;10.966;2022-12-31T18:34:18;13.30;99.90
29501;DHT22;16450;50.288;10.966;2022-12-31T18:37:19;13.30;99.90
29501;DHT22;16450;50.288;10.966;2022-12-31T18:40:20;13.30;99.90
29501;DHT22;16450;50.288;10.966;2022-12-31T18:43:22;13.30;99.90
29501;DHT22;16450;50.288;10.966;2022-12-31T18:46:24;13.30;99.90
29501;DHT22;16450;50.288;10.966;2022-12-31T18:49:24;13.30;99.90
29501;DHT22;16450;50.288;10.966;2022-12-31T18:52:25;13.30;99.90
29501;DHT22;16450;50.288;10.966;2022-12-31T18:55:50;13.30;99.90
29501;DHT22;16450;50.288;10.966;2022-12-31T18:58:51;13.30;99.90
29501;DHT22;16450;50.288;10.966;2022-12-31T19:01:51;13.20;99.90
29501;DHT22;16450;50.288;10.966;2022-12-31T19:04:52;13.30;99.90
29501;DHT22;16450;50.288;10.966;2022-12-31T19:07:53;13.30;99.90
29501;DHT22;16450;50.288;10.966;2022-12-31T19:10:54;13.20;99.90
29501;DHT22;16450;50.288;10.966;2022-12-31T19:13:54;13.10;99.90
29501;DHT22;16450;50.288;10.966;2022-12-31T19:16:55;13.10;99.90
29501;DHT22;16450;50.288;10.966;2022-12-31T19:19:57;13.10;99.90
29501;DHT22;16450;50.288;10.966;2022-12-31T19:23:03;13.10;99.90
29501;DHT22;16450;50.288;10.966;2022-12-31T19:26:04;13.10;99.90
29501;DHT22;16450;50.288;10.966;2022-12-31T19:29:05;13.00;99.90
29501;DHT22;16450;50.288;10.966;2022-12-31T19:32:05;13.00;99.90
29501;DHT22;16450;50.288;10.966;2022-12-31T19:35:07;13.00;99.90
29501;DHT22;16450;50.288;10.966;2022-12-31T19:38:23;12.90;99.90
29501;DHT22;16450;50.288;10.966;2022-12-31T19:41:23;13.00;99.90
29501;DHT22;16450;50.288;10.966;2022-12-31T19:44:24;12.90;99.90
29501;DHT22;16450;50.288;10.966;2022-12-31T19:47:25;12.90;99.90
29501;DHT22;16450;50.288;10.966;2022-12-31T19:50:27;12.80;99.90
29501;DHT22;16450;50.288;10.966;2022-12-31T19:53:28;12.80;99.90
29501;DHT22;16450;50.288;10.966;2022-12-31T19:56:28;12.70;99.90
29501;DHT22;16450;50.288;10.966;2022-12-31T19:59:29;12.80;99.90
29501;DHT22;16450;50.288;10.966;2022-12-31T20:02:30;12.70;99.90
29501;DHT22;16450;50.288;10.966;2022-12-31T20:05:30;12.70;99.90
29501;DHT22;16450;50.288;10.966;2022-12-31T20:08:32;12.70;99.90
29501;DHT22;16450;50.288;10.966;2022-12-31T20:11:32;12.60;99.90
29501;DHT22;16450;50.288;10.966;2022-12-31T20:14:33;12.60;99.90
29501;DHT22;16450;50.288;10.966;2022-12-31T20:17:34;12.60;99.90
29501;DHT22;16450;50.288;10.966;2022-12-31T20:20:34;12.50;99.90
29501;DHT22;16450;50.288;10.966;2022-12-31T20:23:35;12.40;99.90
29501;DHT22;16450;50.288;10.966;2022-12-31T20:26:35;12.40;99.90
29501;DHT22;16450;50.288;10.966;2022-12-31T20:29:36;12.40;99.90
29501;DHT22;16450;50.288;10.966;2022-12-31T20:32:37;12.30;99.90
29501;DHT22;16450;50.288;10.966;2022-12-31T20:35:38;12.30;99.90
29501;DHT22;16450;50.288;10.966;2022-12-31T20:38:38;12.30;99.90
29501;DHT22;16450;50.288;10.966;2022-12-31T20:41:39;12.30;99.90
29501;DHT22;16450;50.288;10.966;2022-12-31T20:44:40;12.30;99.90
29501;DHT22;16450;50.288;10.966;2022-12-31T20:47:40;12.30;99.90
29501;DHT22;16450;50.288;10.966;2022-12-31T20:50:41;12.30;99.90
29501;DHT22;16450;50.288;10.966;2022-12-31T20:53:47;12.30;99.90
29501;DHT22;16450;50.288;10.966;2022-12-31T20:56:47;12.20;99.90
29501;DHT22;16450;50.288;10.966;2022-12-31T20:59:48;12.30;99.90
29501;DHT22;16450;50.288;10.966;2022-12-31T21:02:49;12.20;99.90
29501;DHT22;16450;50.288;10.966;2022-12-31T21:05:51;12.30;99.90
29501;DHT22;16450;50.288;10.966;2022-12-31T21:08:53;12.20;99.90
29501;DHT22;16450;50.288;10.966;2022-12-31T21:11:54;12.20;99.90
29501;DHT22;16450;50.288;10.966;2022-12-31T21:15:14;12.20;99.90
29501;DHT22;16450;50.288;10.966;2022-12-31T21:18:15;12.20;99.90
29501;DHT22;16450;50.288;10.966;2022-12-31T21:21:16;12.20;99.90
29501;DHT22;16450;50.288;10.966;2022-12-31T21:24:16;12.20;99.90
29501;DHT22;16450;50.288;10.966;2022-12-31T21:27:17;12.20;99.90
29501;DHT22;16450;50.288;10.966;2022-12-31T21:30:18;12.20;99.90
29501;DHT22;16450;50.288;10.966;2022-12-31T21:33:18;12.20;99.90
29501;DHT22;16450;50.288;10.966;2022-12-31T21:36:19;12.20;99.90
29501;DHT22;16450;50.288;10.966;2022-12-31T21:39:19;12.10;99.90
29501;DHT22;16450;50.288;10.966;2022-12-31T21:42:20;12.20;99.90
29501;DHT22;16450;50.288;10.966;2022-12-31T21:45:21;12.10;99.90
29501;DHT22;16450;50.288;10.966;2022-12-31T21:48:21;12.10;99.90
29501;DHT22;16450;50.288;10.966;2022-12-31T21:51:25;12.10;99.90
29501;DHT22;16450;50.288;10.966;2022-12-31T21:54:26;12.10;99.90
29501;DHT22;16450;50.288;10.966;2022-12-31T21:57:47;12.10;99.90
29501;DHT22;16450;50.288;10.966;2022-12-31T22:00:48;12.00;99.90
29501;DHT22;16450;50.288;10.966;2022-12-31T22:04:08;12.00;99.90
29501;DHT22;16450;50.288;10.966;2022-12-31T22:07:08;12.00;99.90
29501;DHT22;16450;50.288;10.966;2022-12-31T22:10:09;12.00;99.90
29501;DHT22;16450;50.288;10.966;2022-12-31T22:13:10;12.00;99.90
29501;DHT22;16450;50.288;10.966;2022-12-31T22:16:11;12.00;99.90
29501;DHT22;16450;50.288;10.966;2022-12-31T22:19:13;11.90;99.90
29501;DHT22;16450;50.288;10.966;2022-12-31T22:22:13;11.90;99.90
29501;DHT22;16450;50.288;10.966;2022-12-31T22:25:15;11.90;99.90
29501;DHT22;16450;50.288;10.966;2022-12-31T22:28:15;11.80;99.90
29501;DHT22;16450;50.288;10.966;2022-12-31T22:31:19;11.80;99.90
29501;DHT22;16450;50.288;10.966;2022-12-31T22:34:20;11.70;99.90
29501;DHT22;16450;50.288;10.966;2022-12-31T22:37:20;11.70;99.90
29501;DHT22;16450;50.288;10.966;2022-12-31T22:40:21;11.70;99.90
29501;DHT22;16450;50.288;10.966;2022-12-31T22:43:22;11.60;99.90
29501;DHT22;16450;50.288;10.966;2022-12-31T22:46:24;11.60;99.90
29501;DHT22;16450;50.288;10.966;2022-12-31T22:49:26;11.60;99.90
29501;DHT22;16450;50.288;10.966;2022-12-31T22:52:26;11.50;99.90
29501;DHT22;16450;50.288;10.966;2022-12-31T22:55:27;11.50;99.90
29501;DHT22;16450;50.288;10.966;2022-12-31T22:58:28;11.40;99.90
29501;DHT22;16450;50.288;10.966;2022-12-31T23:01:28;11.50;99.90
29501;DHT22;16450;50.288;10.966;2022-12-31T23:04:29;11.40;99.90
29501;DHT22;16450;50.288;10.966;2022-12-31T23:07:29;11.40;99.90
29501;DHT22;16450;50.288;10.966;2022-12-31T23:10:30;11.40;99.90
29501;DHT22;16450;50.288;10.966;2022-12-31T23:13:50;11.40;99.90
29501;DHT22;16450;50.288;10.966;2022-12-31T23:17:15;11.40;99.90
29501;DHT22;16450;50.288;10.966;2022-12-31T23:20:35;11.40;99.90
29501;DHT22;16450;50.288;10.966;2022-12-31T23:23:56;11.40;99.90